sensor_id;sensor_type;location;lat;lon;timestamp;P1;durP1;ratioP1;P2;durP2;ratioP2
17858;SDS011;35426;30.698;104.050;2023-02-26T00:02:15;189.33;;;98.63;;
17858;SDS011;35426;30.698;104.050;2023-02-26T00:04:51;190.90;;;98.70;;
17858;SDS011;35426;30.698;104.050;2023-02-26T00:07:26;185.13;;;95.27;;
17858;SDS011;35426;30.698;104.050;2023-02-26T00:10:03;188.80;;;99.47;;
17858;SDS011;35426;30.698;104.050;2023-02-26T00:12:40;183.13;;;96.23;;
17858;SDS011;35426;30.698;104.050;2023-02-26T00:15:17;190.77;;;98.67;;
17858;SDS011;35426;30.698;104.050;2023-02-26T00:17:57;187.73;;;96.13;;
17858;SDS011;35426;30.698;104.050;2023-02-26T00:20:36;189.33;;;96.93;;
17858;SDS011;35426;30.698;104.050;2023-02-26T00:23:13;185.47;;;96.57;;
17858;SDS011;35426;30.698;104.050;2023-02-26T00:25:49;171.40;;;95.47;;
17858;SDS011;35426;30.698;104.050;2023-02-26T00:28:25;180.40;;;96.90;;
17858;SDS011;35426;30.698;104.050;2023-02-26T00:31:02;189.77;;;97.57;;
17858;SDS011;35426;30.698;104.050;2023-02-26T00:33:41;175.83;;;94.23;;
17858;SDS011;35426;30.698;104.050;2023-02-26T00:36:21;180.73;;;94.27;;
17858;SDS011;35426;30.698;104.050;2023-02-26T00:39:05;186.10;;;99.90;;
17858;SDS011;35426;30.698;104.050;2023-02-26T00:42:00;173.67;;;95.77;;
17858;SDS011;35426;30.698;104.050;2023-02-26T00:44:36;188.47;;;97.57;;
17858;SDS011;35426;30.698;104.050;2023-02-26T00:47:15;186.47;;;97.33;;
17858;SDS011;35426;30.698;104.050;2023-02-26T00:50:04;184.17;;;94.43;;
17858;SDS011;35426;30.698;104.050;2023-02-26T00:52:49;182.17;;;95.30;;
17858;SDS011;35426;30.698;104.050;2023-02-26T00:55:33;169.40;;;93.43;;
17858;SDS011;35426;30.698;104.050;2023-02-26T00:58:10;175.70;;;94.43;;
17858;SDS011;35426;30.698;104.050;2023-02-26T01:00:50;178.00;;;95.47;;
17858;SDS011;35426;30.698;104.050;2023-02-26T01:03:26;190.53;;;96.53;;
17858;SDS011;35426;30.698;104.050;2023-02-26T01:06:08;195.13;;;97.53;;
17858;SDS011;35426;30.698;104.050;2023-02-26T01:08:50;172.77;;;93.67;;
17858;SDS011;35426;30.698;104.050;2023-02-26T01:11:32;179.67;;;94.67;;
17858;SDS011;35426;30.698;104.050;2023-02-26T01:14:14;185.67;;;96.23;;
17858;SDS011;35426;30.698;104.050;2023-02-26T01:17:01;183.17;;;96.77;;
17858;SDS011;35426;30.698;104.050;2023-02-26T01:19:42;182.90;;;94.47;;
17858;SDS011;35426;30.698;104.050;2023-02-26T01:22:27;176.67;;;94.57;;
17858;SDS011;35426;30.698;104.050;2023-02-26T01:25:13;182.57;;;93.97;;
17858;SDS011;35426;30.698;104.050;2023-02-26T01:27:54;187.10;;;96.23;;
17858;SDS011;35426;30.698;104.050;2023-02-26T01:30:31;188.10;;;95.97;;
17858;SDS011;35426;30.698;104.050;2023-02-26T01:33:16;184.37;;;95.20;;
17858;SDS011;35426;30.698;104.050;2023-02-26T01:36:08;183.73;;;97.53;;
17858;SDS011;35426;30.698;104.050;2023-02-26T01:38:56;189.17;;;98.57;;
17858;SDS011;35426;30.698;104.050;2023-02-26T01:41:40;192.00;;;97.57;;
17858;SDS011;35426;30.698;104.050;2023-02-26T01:44:21;188.67;;;99.40;;
17858;SDS011;35426;30.698;104.050;2023-02-26T01:47:08;183.23;;;98.43;;
17858;SDS011;35426;30.698;104.050;2023-02-26T01:49:50;192.50;;;98.07;;
17858;SDS011;35426;30.698;104.050;2023-02-26T01:55:39;185.70;;;96.53;;
17858;SDS011;35426;30.698;104.050;2023-02-26T01:58:25;186.03;;;101.33;;
17858;SDS011;35426;30.698;104.050;2023-02-26T02:01:05;198.63;;;98.83;;
17858;SDS011;35426;30.698;104.050;2023-02-26T02:03:45;190.30;;;102.27;;
17858;SDS011;35426;30.698;104.050;2023-02-26T02:06:23;181.50;;;98.60;;
17858;SDS011;35426;30.698;104.050;2023-02-26T02:09:01;188.13;;;98.63;;
17858;SDS011;35426;30.698;104.050;2023-02-26T02:11:42;199.77;;;99.03;;
17858;SDS011;35426;30.698;104.050;2023-02-26T02:14:36;191.47;;;96.63;;
17858;SDS011;35426;30.698;104.050;2023-02-26T02:17:26;196.43;;;99.07;;
17858;SDS011;35426;30.698;104.050;2023-02-26T02:23:20;184.23;;;97.83;;
17858;SDS011;35426;30.698;104.050;2023-02-26T02:32:23;187.13;;;99.10;;
17858;SDS011;35426;30.698;104.050;2023-02-26T02:35:07;179.67;;;98.70;;
17858;SDS011;35426;30.698;104.050;2023-02-26T02:37:50;183.93;;;99.60;;
17858;SDS011;35426;30.698;104.050;2023-02-26T02:40:32;189.80;;;100.90;;
17858;SDS011;35426;30.698;104.050;2023-02-26T02:43:14;195.67;;;100.30;;
17858;SDS011;35426;30.698;104.050;2023-02-26T02:45:54;180.57;;;99.40;;
17858;SDS011;35426;30.698;104.050;2023-02-26T02:48:37;176.90;;;98.07;;
17858;SDS011;35426;30.698;104.050;2023-02-26T02:51:22;176.67;;;98.07;;
17858;SDS011;35426;30.698;104.050;2023-02-26T02:54:05;185.53;;;99.13;;
17858;SDS011;35426;30.698;104.050;2023-02-26T02:56:48;180.90;;;100.10;;
17858;SDS011;35426;30.698;104.050;2023-02-26T02:59:33;184.27;;;102.50;;
17858;SDS011;35426;30.698;104.050;2023-02-26T03:02:14;182.47;;;100.43;;
17858;SDS011;35426;30.698;104.050;2023-02-26T03:05:03;188.17;;;101.47;;
17858;SDS011;35426;30.698;104.050;2023-02-26T03:07:45;180.53;;;100.63;;
17858;SDS011;35426;30.698;104.050;2023-02-26T03:10:26;181.93;;;100.43;;
17858;SDS011;35426;30.698;104.050;2023-02-26T03:13:04;179.57;;;100.03;;
17858;SDS011;35426;30.698;104.050;2023-02-26T03:15:52;186.00;;;104.17;;
17858;SDS011;35426;30.698;104.050;2023-02-26T03:18:46;191.73;;;102.37;;
17858;SDS011;35426;30.698;104.050;2023-02-26T03:21:41;177.90;;;101.00;;
17858;SDS011;35426;30.698;104.050;2023-02-26T03:24:45;185.80;;;101.77;;
17858;SDS011;35426;30.698;104.050;2023-02-26T03:27:30;187.93;;;105.80;;
17858;SDS011;35426;30.698;104.050;2023-02-26T03:30:12;188.97;;;104.07;;
17858;SDS011;35426;30.698;104.050;2023-02-26T03:32:55;181.40;;;100.00;;
17858;SDS011;35426;30.698;104.050;2023-02-26T03:35:42;162.23;;;89.43;;
17858;SDS011;35426;30.698;104.050;2023-02-26T03:38:26;163.97;;;93.03;;
17858;SDS011;35426;30.698;104.050;2023-02-26T03:41:09;169.50;;;94.13;;
17858;SDS011;35426;30.698;104.050;2023-02-26T03:43:52;167.37;;;97.40;;
17858;SDS011;35426;30.698;104.050;2023-02-26T03:46:34;170.43;;;95.00;;
17858;SDS011;35426;30.698;104.050;2023-02-26T03:49:14;167.87;;;95.73;;
17858;SDS011;35426;30.698;104.050;2023-02-26T03:51:54;164.07;;;96.90;;
17858;SDS011;35426;30.698;104.050;2023-02-26T03:55:12;161.40;;;96.87;;
17858;SDS011;35426;30.698;104.050;2023-02-26T03:58:20;159.57;;;95.13;;
17858;SDS011;35426;30.698;104.050;2023-02-26T04:01:23;173.77;;;97.50;;
17858;SDS011;35426;30.698;104.050;2023-02-26T04:04:09;172.17;;;94.30;;
17858;SDS011;35426;30.698;104.050;2023-02-26T04:06:51;150.53;;;91.40;;
17858;SDS011;35426;30.698;104.050;2023-02-26T04:09:31;155.43;;;96.30;;
17858;SDS011;35426;30.698;104.050;2023-02-26T04:12:11;154.93;;;93.77;;
17858;SDS011;35426;30.698;104.050;2023-02-26T04:14:50;159.63;;;96.53;;
17858;SDS011;35426;30.698;104.050;2023-02-26T04:17:37;158.17;;;97.30;;
17858;SDS011;35426;30.698;104.050;2023-02-26T04:20:20;148.77;;;91.20;;
17858;SDS011;35426;30.698;104.050;2023-02-26T04:23:06;148.90;;;91.47;;
17858;SDS011;35426;30.698;104.050;2023-02-26T04:25:46;141.57;;;83.80;;
17858;SDS011;35426;30.698;104.050;2023-02-26T04:28:25;143.33;;;84.17;;
17858;SDS011;35426;30.698;104.050;2023-02-26T04:31:05;146.87;;;85.93;;
17858;SDS011;35426;30.698;104.050;2023-02-26T04:33:42;145.07;;;88.90;;
17858;SDS011;35426;30.698;104.050;2023-02-26T04:36:38;154.70;;;89.07;;
17858;SDS011;35426;30.698;104.050;2023-02-26T04:39:18;147.70;;;91.13;;
17858;SDS011;35426;30.698;104.050;2023-02-26T04:41:56;150.70;;;88.73;;
17858;SDS011;35426;30.698;104.050;2023-02-26T04:44:37;160.27;;;93.13;;
17858;SDS011;35426;30.698;104.050;2023-02-26T04:47:16;150.27;;;90.50;;
17858;SDS011;35426;30.698;104.050;2023-02-26T04:49:57;147.43;;;88.53;;
17858;SDS011;35426;30.698;104.050;2023-02-26T04:52:41;149.30;;;88.00;;
17858;SDS011;35426;30.698;104.050;2023-02-26T04:55:22;141.93;;;81.23;;
17858;SDS011;35426;30.698;104.050;2023-02-26T04:57:59;118.50;;;68.47;;
17858;SDS011;35426;30.698;104.050;2023-02-26T05:00:42;101.67;;;59.00;;
17858;SDS011;35426;30.698;104.050;2023-02-26T05:03:26;85.97;;;53.73;;
17858;SDS011;35426;30.698;104.050;2023-02-26T05:06:07;82.17;;;50.57;;
17858;SDS011;35426;30.698;104.050;2023-02-26T05:08:45;77.33;;;47.07;;
17858;SDS011;35426;30.698;104.050;2023-02-26T05:11:34;72.17;;;46.43;;
17858;SDS011;35426;30.698;104.050;2023-02-26T05:14:13;76.47;;;45.20;;
17858;SDS011;35426;30.698;104.050;2023-02-26T05:16:52;74.77;;;46.50;;
17858;SDS011;35426;30.698;104.050;2023-02-26T05:19:33;82.90;;;48.80;;
17858;SDS011;35426;30.698;104.050;2023-02-26T05:22:10;86.33;;;49.80;;
17858;SDS011;35426;30.698;104.050;2023-02-26T05:24:49;85.50;;;48.87;;
17858;SDS011;35426;30.698;104.050;2023-02-26T05:27:26;81.33;;;48.23;;
17858;SDS011;35426;30.698;104.050;2023-02-26T05:30:03;73.30;;;45.93;;
17858;SDS011;35426;30.698;104.050;2023-02-26T05:32:46;77.70;;;46.43;;
17858;SDS011;35426;30.698;104.050;2023-02-26T05:35:28;82.33;;;51.20;;
17858;SDS011;35426;30.698;104.050;2023-02-26T05:38:08;88.43;;;53.53;;
17858;SDS011;35426;30.698;104.050;2023-02-26T05:40:54;86.10;;;50.93;;
17858;SDS011;35426;30.698;104.050;2023-02-26T05:43:40;92.03;;;53.30;;
17858;SDS011;35426;30.698;104.050;2023-02-26T05:46:17;89.27;;;53.57;;
17858;SDS011;35426;30.698;104.050;2023-02-26T05:48:56;88.00;;;53.40;;
17858;SDS011;35426;30.698;104.050;2023-02-26T05:51:41;87.07;;;52.73;;
17858;SDS011;35426;30.698;104.050;2023-02-26T05:54:20;82.57;;;49.47;;
17858;SDS011;35426;30.698;104.050;2023-02-26T05:57:01;88.23;;;52.23;;
17858;SDS011;35426;30.698;104.050;2023-02-26T05:59:45;85.13;;;50.47;;
17858;SDS011;35426;30.698;104.050;2023-02-26T06:02:25;79.30;;;49.40;;
17858;SDS011;35426;30.698;104.050;2023-02-26T06:05:11;87.90;;;51.30;;
17858;SDS011;35426;30.698;104.050;2023-02-26T06:07:49;83.57;;;50.50;;
17858;SDS011;35426;30.698;104.050;2023-02-26T06:10:29;84.60;;;48.77;;
17858;SDS011;35426;30.698;104.050;2023-02-26T06:13:10;80.93;;;45.50;;
17858;SDS011;35426;30.698;104.050;2023-02-26T06:15:47;71.30;;;44.57;;
17858;SDS011;35426;30.698;104.050;2023-02-26T06:18:26;76.07;;;44.33;;
17858;SDS011;35426;30.698;104.050;2023-02-26T06:21:07;66.80;;;43.37;;
17858;SDS011;35426;30.698;104.050;2023-02-26T06:23:44;65.70;;;40.63;;
17858;SDS011;35426;30.698;104.050;2023-02-26T06:26:27;66.20;;;39.10;;
17858;SDS011;35426;30.698;104.050;2023-02-26T06:29:07;69.60;;;38.40;;
17858;SDS011;35426;30.698;104.050;2023-02-26T06:31:48;63.97;;;38.93;;
17858;SDS011;35426;30.698;104.050;2023-02-26T06:34:27;63.63;;;40.20;;
17858;SDS011;35426;30.698;104.050;2023-02-26T06:37:07;61.60;;;37.80;;
17858;SDS011;35426;30.698;104.050;2023-02-26T06:39:44;58.60;;;37.33;;
17858;SDS011;35426;30.698;104.050;2023-02-26T06:42:24;65.60;;;38.97;;
17858;SDS011;35426;30.698;104.050;2023-02-26T06:45:03;63.77;;;39.20;;
17858;SDS011;35426;30.698;104.050;2023-02-26T06:47:41;64.87;;;38.60;;
17858;SDS011;35426;30.698;104.050;2023-02-26T06:50:22;58.43;;;36.63;;
17858;SDS011;35426;30.698;104.050;2023-02-26T06:53:06;60.33;;;36.37;;
17858;SDS011;35426;30.698;104.050;2023-02-26T06:55:46;57.30;;;35.20;;
17858;SDS011;35426;30.698;104.050;2023-02-26T06:58:25;63.70;;;39.07;;
17858;SDS011;35426;30.698;104.050;2023-02-26T07:01:04;69.50;;;42.10;;
17858;SDS011;35426;30.698;104.050;2023-02-26T07:03:50;66.17;;;38.90;;
17858;SDS011;35426;30.698;104.050;2023-02-26T07:06:28;68.37;;;38.77;;
17858;SDS011;35426;30.698;104.050;2023-02-26T07:09:07;68.60;;;39.07;;
17858;SDS011;35426;30.698;104.050;2023-02-26T07:11:45;66.07;;;38.37;;
17858;SDS011;35426;30.698;104.050;2023-02-26T07:14:23;65.47;;;40.83;;
17858;SDS011;35426;30.698;104.050;2023-02-26T07:17:00;73.77;;;41.60;;
17858;SDS011;35426;30.698;104.050;2023-02-26T07:19:50;75.57;;;42.30;;
17858;SDS011;35426;30.698;104.050;2023-02-26T07:22:31;64.17;;;42.00;;
17858;SDS011;35426;30.698;104.050;2023-02-26T07:25:11;66.37;;;41.63;;
17858;SDS011;35426;30.698;104.050;2023-02-26T07:27:53;65.77;;;41.83;;
17858;SDS011;35426;30.698;104.050;2023-02-26T07:30:30;69.60;;;42.00;;
17858;SDS011;35426;30.698;104.050;2023-02-26T07:33:14;74.87;;;42.47;;
17858;SDS011;35426;30.698;104.050;2023-02-26T07:35:59;71.93;;;42.43;;
17858;SDS011;35426;30.698;104.050;2023-02-26T07:38:40;62.97;;;39.33;;
17858;SDS011;35426;30.698;104.050;2023-02-26T07:41:20;72.43;;;41.13;;
17858;SDS011;35426;30.698;104.050;2023-02-26T07:44:04;70.63;;;42.50;;
17858;SDS011;35426;30.698;104.050;2023-02-26T07:46:51;72.67;;;42.73;;
17858;SDS011;35426;30.698;104.050;2023-02-26T07:49:30;67.90;;;42.03;;
17858;SDS011;35426;30.698;104.050;2023-02-26T07:52:11;76.87;;;41.80;;
17858;SDS011;35426;30.698;104.050;2023-02-26T07:54:53;72.50;;;44.30;;
17858;SDS011;35426;30.698;104.050;2023-02-26T07:57:33;74.77;;;42.87;;
17858;SDS011;35426;30.698;104.050;2023-02-26T08:00:13;72.80;;;41.80;;
17858;SDS011;35426;30.698;104.050;2023-02-26T08:02:51;66.73;;;40.20;;
17858;SDS011;35426;30.698;104.050;2023-02-26T08:05:28;65.40;;;39.80;;
17858;SDS011;35426;30.698;104.050;2023-02-26T08:08:05;62.60;;;38.00;;
17858;SDS011;35426;30.698;104.050;2023-02-26T08:10:43;65.33;;;38.03;;
17858;SDS011;35426;30.698;104.050;2023-02-26T08:13:28;63.67;;;38.33;;
17858;SDS011;35426;30.698;104.050;2023-02-26T08:16:11;70.20;;;36.77;;
17858;SDS011;35426;30.698;104.050;2023-02-26T08:18:49;70.67;;;37.17;;
17858;SDS011;35426;30.698;104.050;2023-02-26T08:21:29;61.00;;;36.10;;
17858;SDS011;35426;30.698;104.050;2023-02-26T08:24:09;57.20;;;36.13;;
17858;SDS011;35426;30.698;104.050;2023-02-26T08:26:50;62.43;;;35.50;;
17858;SDS011;35426;30.698;104.050;2023-02-26T08:29:38;62.80;;;34.33;;
17858;SDS011;35426;30.698;104.050;2023-02-26T08:32:17;57.07;;;33.97;;
17858;SDS011;35426;30.698;104.050;2023-02-26T08:34:59;63.27;;;34.60;;
17858;SDS011;35426;30.698;104.050;2023-02-26T08:37:41;61.47;;;34.43;;
17858;SDS011;35426;30.698;104.050;2023-02-26T08:40:18;57.33;;;34.60;;
17858;SDS011;35426;30.698;104.050;2023-02-26T08:42:55;56.13;;;33.57;;
17858;SDS011;35426;30.698;104.050;2023-02-26T08:45:38;54.90;;;32.60;;
17858;SDS011;35426;30.698;104.050;2023-02-26T08:48:17;57.97;;;33.37;;
17858;SDS011;35426;30.698;104.050;2023-02-26T08:50:55;62.33;;;34.63;;
17858;SDS011;35426;30.698;104.050;2023-02-26T08:53:39;55.37;;;34.07;;
17858;SDS011;35426;30.698;104.050;2023-02-26T08:56:19;54.13;;;31.43;;
17858;SDS011;35426;30.698;104.050;2023-02-26T08:59:01;55.90;;;31.20;;
17858;SDS011;35426;30.698;104.050;2023-02-26T09:01:43;56.47;;;33.67;;
17858;SDS011;35426;30.698;104.050;2023-02-26T09:04:20;56.40;;;30.27;;
17858;SDS011;35426;30.698;104.050;2023-02-26T09:06:59;55.93;;;31.00;;
17858;SDS011;35426;30.698;104.050;2023-02-26T09:09:38;53.53;;;30.07;;
17858;SDS011;35426;30.698;104.050;2023-02-26T09:12:15;57.70;;;29.67;;
17858;SDS011;35426;30.698;104.050;2023-02-26T09:14:55;54.43;;;28.70;;
17858;SDS011;35426;30.698;104.050;2023-02-26T09:17:36;51.37;;;29.00;;
17858;SDS011;35426;30.698;104.050;2023-02-26T09:20:23;55.13;;;27.83;;
17858;SDS011;35426;30.698;104.050;2023-02-26T09:23:03;49.17;;;27.30;;
17858;SDS011;35426;30.698;104.050;2023-02-26T09:25:42;53.83;;;27.40;;
17858;SDS011;35426;30.698;104.050;2023-02-26T09:28:22;58.07;;;28.30;;
17858;SDS011;35426;30.698;104.050;2023-02-26T09:31:04;49.50;;;26.90;;
17858;SDS011;35426;30.698;104.050;2023-02-26T09:33:46;49.43;;;26.53;;
17858;SDS011;35426;30.698;104.050;2023-02-26T09:36:24;52.10;;;28.00;;
17858;SDS011;35426;30.698;104.050;2023-02-26T09:39:06;45.57;;;25.77;;
17858;SDS011;35426;30.698;104.050;2023-02-26T09:41:54;47.70;;;24.90;;
17858;SDS011;35426;30.698;104.050;2023-02-26T09:44:36;45.73;;;24.50;;
17858;SDS011;35426;30.698;104.050;2023-02-26T09:47:14;43.03;;;24.50;;
17858;SDS011;35426;30.698;104.050;2023-02-26T09:49:58;43.33;;;23.70;;
17858;SDS011;35426;30.698;104.050;2023-02-26T09:52:42;46.43;;;24.03;;
17858;SDS011;35426;30.698;104.050;2023-02-26T09:55:31;44.03;;;24.07;;
17858;SDS011;35426;30.698;104.050;2023-02-26T09:58:14;46.63;;;24.20;;
17858;SDS011;35426;30.698;104.050;2023-02-26T10:01:00;43.23;;;24.30;;
17858;SDS011;35426;30.698;104.050;2023-02-26T10:03:53;52.50;;;23.67;;
17858;SDS011;35426;30.698;104.050;2023-02-26T10:06:37;42.53;;;;;
17858;SDS011;35426;30.698;104.050;2023-02-26T10:09:34;42.73;;;23.17;;
17858;SDS011;35426;30.698;104.050;2023-02-26T10:12:21;42.60;;;23.90;;
17858;SDS011;35426;30.698;104.050;2023-02-26T10:15:13;44.70;;;23.20;;
17858;SDS011;35426;30.698;104.050;2023-02-26T10:20:48;43.43;;;23.60;;
17858;SDS011;35426;30.698;104.050;2023-02-26T10:23:41;47.70;;;24.57;;
17858;SDS011;35426;30.698;104.050;2023-02-26T10:26:34;48.70;;;22.33;;
17858;SDS011;35426;30.698;104.050;2023-02-26T10:29:25;43.23;;;23.30;;
17858;SDS011;35426;30.698;104.050;2023-02-26T10:32:20;39.73;;;21.23;;
17858;SDS011;35426;30.698;104.050;2023-02-26T10:35:24;39.17;;;21.00;;
17858;SDS011;35426;30.698;104.050;2023-02-26T10:38:07;39.57;;;19.90;;
17858;SDS011;35426;30.698;104.050;2023-02-26T10:40:51;45.93;;;22.33;;
17858;SDS011;35426;30.698;104.050;2023-02-26T10:43:32;40.83;;;20.97;;
17858;SDS011;35426;30.698;104.050;2023-02-26T10:46:27;41.57;;;20.87;;
17858;SDS011;35426;30.698;104.050;2023-02-26T10:52:39;39.30;;;20.57;;
17858;SDS011;35426;30.698;104.050;2023-02-26T10:55:24;45.37;;;22.37;;
17858;SDS011;35426;30.698;104.050;2023-02-26T10:58:11;47.20;;;22.10;;
17858;SDS011;35426;30.698;104.050;2023-02-26T11:00:51;43.07;;;21.57;;
17858;SDS011;35426;30.698;104.050;2023-02-26T11:03:30;89.50;;;42.30;;
17858;SDS011;35426;30.698;104.050;2023-02-26T11:06:16;127.03;;;64.07;;
17858;SDS011;35426;30.698;104.050;2023-02-26T11:09:12;157.67;;;84.53;;
17858;SDS011;35426;30.698;104.050;2023-02-26T11:12:03;165.13;;;85.93;;
17858;SDS011;35426;30.698;104.050;2023-02-26T11:14:54;179.70;;;90.07;;
17858;SDS011;35426;30.698;104.050;2023-02-26T11:17:36;176.53;;;90.20;;
17858;SDS011;35426;30.698;104.050;2023-02-26T11:20:24;166.53;;;92.17;;
17858;SDS011;35426;30.698;104.050;2023-02-26T11:23:11;176.77;;;92.93;;
17858;SDS011;35426;30.698;104.050;2023-02-26T11:25:58;179.67;;;93.27;;
17858;SDS011;35426;30.698;104.050;2023-02-26T11:28:44;187.30;;;96.13;;
17858;SDS011;35426;30.698;104.050;2023-02-26T11:31:27;185.70;;;94.57;;
17858;SDS011;35426;30.698;104.050;2023-02-26T11:34:11;171.50;;;93.77;;
17858;SDS011;35426;30.698;104.050;2023-02-26T11:36:50;185.07;;;94.70;;
17858;SDS011;35426;30.698;104.050;2023-02-26T11:39:32;186.13;;;92.07;;
17858;SDS011;35426;30.698;104.050;2023-02-26T11:42:13;183.70;;;91.63;;
17858;SDS011;35426;30.698;104.050;2023-02-26T11:44:50;177.63;;;92.40;;
17858;SDS011;35426;30.698;104.050;2023-02-26T11:47:37;175.10;;;90.00;;
17858;SDS011;35426;30.698;104.050;2023-02-26T11:50:19;168.80;;;86.93;;
17858;SDS011;35426;30.698;104.050;2023-02-26T11:53:05;165.57;;;85.17;;
17858;SDS011;35426;30.698;104.050;2023-02-26T11:55:57;157.63;;;82.67;;
17858;SDS011;35426;30.698;104.050;2023-02-26T11:58:37;152.90;;;85.40;;
17858;SDS011;35426;30.698;104.050;2023-02-26T12:01:22;158.27;;;84.83;;
17858;SDS011;35426;30.698;104.050;2023-02-26T12:04:22;165.07;;;86.23;;
17858;SDS011;35426;30.698;104.050;2023-02-26T12:07:10;160.77;;;84.57;;
17858;SDS011;35426;30.698;104.050;2023-02-26T12:09:55;159.33;;;82.73;;
17858;SDS011;35426;30.698;104.050;2023-02-26T12:12:44;156.07;;;83.83;;
17858;SDS011;35426;30.698;104.050;2023-02-26T12:15:41;157.17;;;83.97;;
17858;SDS011;35426;30.698;104.050;2023-02-26T12:18:38;164.47;;;86.57;;
17858;SDS011;35426;30.698;104.050;2023-02-26T12:21:44;166.83;;;85.73;;
17858;SDS011;35426;30.698;104.050;2023-02-26T12:24:47;159.80;;;85.10;;
17858;SDS011;35426;30.698;104.050;2023-02-26T12:27:56;168.20;;;85.30;;
17858;SDS011;35426;30.698;104.050;2023-02-26T12:31:01;167.50;;;85.43;;
17858;SDS011;35426;30.698;104.050;2023-02-26T12:34:01;163.93;;;86.47;;
17858;SDS011;35426;30.698;104.050;2023-02-26T12:40:26;159.80;;;86.40;;
17858;SDS011;35426;30.698;104.050;2023-02-26T12:43:38;170.40;;;87.40;;
17858;SDS011;35426;30.698;104.050;2023-02-26T12:46:39;164.37;;;87.40;;
17858;SDS011;35426;30.698;104.050;2023-02-26T12:49:33;167.20;;;87.40;;
17858;SDS011;35426;30.698;104.050;2023-02-26T12:52:48;170.73;;;88.63;;
17858;SDS011;35426;30.698;104.050;2023-02-26T12:55:41;182.97;;;89.53;;
17858;SDS011;35426;30.698;104.050;2023-02-26T12:58:39;165.13;;;88.10;;
17858;SDS011;35426;30.698;104.050;2023-02-26T13:01:33;164.20;;;86.03;;
17858;SDS011;35426;30.698;104.050;2023-02-26T13:04:39;157.20;;;81.40;;
17858;SDS011;35426;30.698;104.050;2023-02-26T13:07:38;165.33;;;84.97;;
17858;SDS011;35426;30.698;104.050;2023-02-26T13:10:35;162.77;;;85.03;;
17858;SDS011;35426;30.698;104.050;2023-02-26T13:13:56;159.13;;;84.87;;
17858;SDS011;35426;30.698;104.050;2023-02-26T13:16:48;164.57;;;86.07;;
17858;SDS011;35426;30.698;104.050;2023-02-26T13:19:43;157.10;;;83.43;;
17858;SDS011;35426;30.698;104.050;2023-02-26T13:22:27;153.60;;;81.93;;
17858;SDS011;35426;30.698;104.050;2023-02-26T13:25:14;158.30;;;80.50;;
17858;SDS011;35426;30.698;104.050;2023-02-26T13:28:33;165.00;;;82.77;;
17858;SDS011;35426;30.698;104.050;2023-02-26T13:31:16;160.70;;;81.70;;
17858;SDS011;35426;30.698;104.050;2023-02-26T13:34:08;161.30;;;79.47;;
17858;SDS011;35426;30.698;104.050;2023-02-26T13:37:03;153.40;;;79.17;;
17858;SDS011;35426;30.698;104.050;2023-02-26T13:39:45;161.23;;;80.77;;
17858;SDS011;35426;30.698;104.050;2023-02-26T13:42:37;159.63;;;80.27;;
17858;SDS011;35426;30.698;104.050;2023-02-26T13:45:32;155.30;;;78.70;;
17858;SDS011;35426;30.698;104.050;2023-02-26T13:48:25;152.30;;;78.20;;
17858;SDS011;35426;30.698;104.050;2023-02-26T13:51:24;149.80;;;77.87;;
17858;SDS011;35426;30.698;104.050;2023-02-26T13:54:27;154.40;;;77.57;;
17858;SDS011;35426;30.698;104.050;2023-02-26T14:00:25;153.43;;;77.80;;
17858;SDS011;35426;30.698;104.050;2023-02-26T14:03:30;150.77;;;76.03;;
17858;SDS011;35426;30.698;104.050;2023-02-26T14:06:24;148.33;;;77.17;;
17858;SDS011;35426;30.698;104.050;2023-02-26T14:12:34;156.83;;;77.80;;
17858;SDS011;35426;30.698;104.050;2023-02-26T14:15:27;147.63;;;77.43;;
17858;SDS011;35426;30.698;104.050;2023-02-26T14:24:35;145.53;;;73.63;;
17858;SDS011;35426;30.698;104.050;2023-02-26T14:27:33;151.60;;;75.83;;
17858;SDS011;35426;30.698;104.050;2023-02-26T14:30:18;143.73;;;77.67;;
17858;SDS011;35426;30.698;104.050;2023-02-26T14:33:27;143.97;;;74.93;;
17858;SDS011;35426;30.698;104.050;2023-02-26T14:36:28;143.80;;;75.77;;
17858;SDS011;35426;30.698;104.050;2023-02-26T14:39:18;156.83;;;78.60;;
17858;SDS011;35426;30.698;104.050;2023-02-26T14:42:18;146.00;;;77.03;;
17858;SDS011;35426;30.698;104.050;2023-02-26T14:45:00;155.97;;;76.50;;
17858;SDS011;35426;30.698;104.050;2023-02-26T14:48:10;145.27;;;74.90;;
17858;SDS011;35426;30.698;104.050;2023-02-26T14:50:52;139.80;;;74.77;;
17858;SDS011;35426;30.698;104.050;2023-02-26T14:53:56;148.93;;;73.50;;
17858;SDS011;35426;30.698;104.050;2023-02-26T14:56:53;138.97;;;72.17;;
17858;SDS011;35426;30.698;104.050;2023-02-26T15:03:22;149.63;;;74.67;;
17858;SDS011;35426;30.698;104.050;2023-02-26T15:06:33;142.73;;;74.57;;
17858;SDS011;35426;30.698;104.050;2023-02-26T15:10:06;145.23;;;75.13;;
17858;SDS011;35426;30.698;104.050;2023-02-26T15:13:04;147.80;;;74.07;;
17858;SDS011;35426;30.698;104.050;2023-02-26T15:16:01;149.90;;;74.77;;
17858;SDS011;35426;30.698;104.050;2023-02-26T15:19:03;147.53;;;76.70;;
17858;SDS011;35426;30.698;104.050;2023-02-26T15:21:59;162.10;;;77.43;;
17858;SDS011;35426;30.698;104.050;2023-02-26T15:24:55;145.20;;;76.70;;
17858;SDS011;35426;30.698;104.050;2023-02-26T15:27:45;151.63;;;77.07;;
17858;SDS011;35426;30.698;104.050;2023-02-26T15:30:29;149.37;;;78.10;;
17858;SDS011;35426;30.698;104.050;2023-02-26T15:33:18;151.97;;;77.63;;
17858;SDS011;35426;30.698;104.050;2023-02-26T15:36:05;154.43;;;79.97;;
17858;SDS011;35426;30.698;104.050;2023-02-26T15:38:52;152.47;;;78.73;;
17858;SDS011;35426;30.698;104.050;2023-02-26T15:41:44;152.43;;;78.13;;
17858;SDS011;35426;30.698;104.050;2023-02-26T15:44:32;155.93;;;80.43;;
17858;SDS011;35426;30.698;104.050;2023-02-26T15:47:25;161.63;;;79.93;;
17858;SDS011;35426;30.698;104.050;2023-02-26T15:50:13;158.77;;;80.10;;
17858;SDS011;35426;30.698;104.050;2023-02-26T15:52:58;154.73;;;79.20;;
17858;SDS011;35426;30.698;104.050;2023-02-26T15:55:40;156.73;;;80.30;;
17858;SDS011;35426;30.698;104.050;2023-02-26T15:58:37;148.77;;;77.77;;
17858;SDS011;35426;30.698;104.050;2023-02-26T16:01:20;144.40;;;79.30;;
17858;SDS011;35426;30.698;104.050;2023-02-26T16:04:12;158.87;;;80.20;;
17858;SDS011;35426;30.698;104.050;2023-02-26T16:07:00;150.57;;;79.03;;
17858;SDS011;35426;30.698;104.050;2023-02-26T16:09:43;149.10;;;79.70;;
17858;SDS011;35426;30.698;104.050;2023-02-26T16:12:23;153.80;;;80.50;;